createdAt,value
2023-04-03T00:04:01.588Z,1.89
2023-04-03T00:09:04.734Z,1.89
2023-04-03T00:14:06.476Z,1.83
2023-04-03T00:19:08.216Z,1.83
2023-04-03T00:24:11.361Z,1.83
2023-04-03T00:29:13.148Z,1.69
2023-04-03T00:34:14.831Z,1.63
2023-04-03T00:39:17.864Z,1.53
2023-04-03T00:44:21.481Z,1.45
2023-04-03T00:49:24.118Z,1.39
2023-04-03T00:54:27.488Z,1.33
2023-04-03T00:59:31.417Z,1.28
2023-04-03T01:04:34.358Z,1.27
2023-04-03T01:09:37.838Z,1.22
2023-04-03T01:14:39.718Z,1.15
2023-04-03T01:19:41.473Z,1.06
2023-04-03T01:24:44.487Z,1.00
2023-04-03T01:29:46.761Z,0.97
2023-04-03T01:34:49.814Z,0.92
2023-04-03T01:39:51.505Z,0.91
2023-04-03T01:44:53.318Z,0.89
2023-04-03T01:49:56.431Z,0.86
2023-04-03T01:54:58.254Z,0.79
2023-04-03T02:00:00.372Z,0.71
2023-04-03T02:05:04.009Z,0.66
2023-04-03T02:10:06.466Z,0.59
2023-04-03T02:15:09.119Z,0.58
2023-04-03T02:20:13.405Z,0.51
2023-04-03T02:25:15.493Z,0.49
2023-04-03T02:30:17.323Z,0.52
2023-04-03T02:35:20.455Z,0.50
2023-04-03T02:40:23.572Z,0.48
2023-04-03T02:45:26.183Z,0.49
2023-04-03T02:50:29.729Z,0.48
2023-04-03T02:55:31.570Z,0.48
2023-04-03T03:00:33.372Z,0.43
2023-04-03T03:05:37.192Z,0.39
2023-04-03T03:10:39.144Z,0.41
2023-04-03T03:15:42.816Z,0.39
2023-04-03T03:20:46.039Z,0.35
2023-04-03T03:25:47.952Z,0.32
2023-04-03T03:30:49.686Z,0.30
2023-04-03T03:35:54.190Z,0.30
2023-04-03T03:40:55.978Z,0.31
2023-04-03T03:45:59.490Z,0.28
2023-04-03T03:51:04.161Z,0.26
2023-04-03T03:56:11.008Z,0.26
2023-04-03T04:01:14.858Z,0.22
2023-04-03T04:06:22.839Z,0.21
2023-04-03T04:11:25.894Z,0.22
2023-04-03T04:16:29.380Z,0.24
2023-04-03T04:21:36.185Z,0.22
2023-04-03T04:26:38.109Z,0.24
2023-04-03T04:31:41.146Z,0.24
2023-04-03T04:36:44.694Z,0.21
2023-04-03T04:41:47.191Z,0.18
2023-04-03T04:46:49.109Z,0.14
2023-04-03T04:51:52.691Z,0.11
2023-04-03T04:56:59.891Z,0.12
2023-04-03T05:02:03.523Z,0.13
2023-04-03T05:07:07.836Z,0.15
2023-04-03T05:12:11.790Z,0.14
2023-04-03T05:17:19.520Z,0.14
2023-04-03T05:22:26.913Z,0.14
2023-04-03T05:27:32.201Z,0.21
2023-04-03T05:32:35.016Z,0.28
2023-04-03T05:37:52.067Z,0.34
2023-04-03T05:42:54.549Z,0.41
2023-04-03T05:47:58.870Z,0.51
2023-04-03T05:53:02.285Z,0.69
2023-04-03T05:58:05.874Z,2.62
2023-04-03T06:03:08.347Z,4.51
2023-04-03T06:08:11.896Z,7.24
2023-04-03T06:13:13.642Z,7.01
2023-04-03T06:18:16.229Z,7.77
2023-04-03T06:23:19.293Z,8.36
2023-04-03T06:28:21.143Z,10.16
2023-04-03T06:33:22.813Z,7.20
2023-04-03T06:38:25.932Z,9.14
2023-04-03T06:43:27.607Z,6.80
2023-04-03T06:48:29.483Z,6.64
2023-04-03T06:53:32.516Z,9.18
2023-04-03T06:58:34.255Z,11.31
2023-04-03T07:03:36.491Z,12.71
2023-04-03T07:08:39.692Z,13.09
2023-04-03T07:13:41.459Z,13.21
2023-04-03T07:18:43.161Z,13.34
2023-04-03T07:23:46.257Z,13.21
2023-04-03T07:28:49.605Z,14.04
2023-04-03T07:33:51.339Z,10.60
2023-04-03T07:38:54.405Z,9.35
2023-04-03T07:43:57.445Z,9.32
2023-04-03T07:48:59.172Z,9.40
2023-04-03T07:54:02.452Z,11.04
2023-04-03T07:59:04.140Z,13.39
2023-04-03T08:04:07.706Z,14.94
2023-04-03T08:09:11.103Z,16.97
2023-04-03T08:14:17.264Z,19.36
2023-04-03T08:19:26.008Z,22.71
2023-04-03T08:24:29.797Z,21.94
2023-04-03T08:29:32.937Z,24.25
2023-04-03T08:34:35.896Z,23.61
2023-04-03T08:39:38.933Z,22.86
2023-04-03T08:44:42.518Z,23.29
2023-04-03T08:49:49.893Z,25.00
2023-04-03T08:54:54.757Z,26.22
2023-04-03T08:59:56.677Z,25.10
2023-04-03T09:04:59.039Z,26.04
2023-04-03T09:10:03.984Z,26.23
2023-04-03T09:15:12.097Z,25.76
2023-04-03T09:20:20.644Z,25.00
2023-04-03T09:25:25.401Z,26.26
2023-04-03T09:30:27.388Z,23.81
2023-04-03T09:35:40.469Z,22.30
2023-04-03T09:40:52.195Z,20.46
2023-04-03T09:45:54.046Z,16.74
2023-04-03T09:50:59.801Z,14.42
2023-04-03T09:56:04.474Z,14.12
2023-04-03T10:01:06.235Z,17.96
2023-04-03T10:06:21.902Z,16.96
2023-04-03T10:11:26.032Z,17.09
2023-04-03T10:16:30.421Z,21.67
2023-04-03T10:21:37.158Z,23.76
2023-04-03T10:26:46.148Z,19.81
2023-04-03T10:31:51.816Z,17.15
2023-04-03T10:36:56.059Z,18.49
2023-04-03T10:42:16.089Z,16.58
2023-04-03T10:47:20.595Z,15.11
2023-04-03T10:52:24.089Z,13.97
2023-04-03T10:57:27.132Z,15.49
2023-04-03T11:02:31.618Z,13.20
2023-04-03T11:07:34.483Z,12.02
2023-04-03T11:12:43.055Z,11.49
2023-04-03T11:17:47.434Z,11.32
2023-04-03T11:22:51.884Z,12.15
2023-04-03T11:27:57.650Z,11.17
2023-04-03T11:33:06.387Z,11.97
2023-04-03T11:38:08.131Z,12.11
2023-04-03T11:43:21.618Z,12.01
2023-04-03T11:48:46.298Z,12.17
2023-04-03T11:53:48.325Z,11.48
2023-04-03T11:59:19.288Z,11.82
2023-04-03T12:04:21.965Z,11.32
2023-04-03T12:09:25.653Z,11.26
2023-04-03T12:14:28.731Z,11.15
2023-04-03T12:19:41.810Z,10.99
2023-04-03T12:24:44.814Z,10.97
2023-04-03T12:29:52.312Z,10.93
2023-04-03T12:35:02.376Z,11.33
2023-04-03T12:40:09.161Z,11.37
2023-04-03T12:45:17.210Z,10.81
2023-04-03T12:50:22.345Z,10.78
2023-04-03T12:55:24.156Z,10.76
2023-04-03T13:00:36.451Z,10.86
2023-04-03T13:05:38.371Z,10.26
2023-04-03T13:10:53.413Z,10.37
2023-04-03T13:15:56.710Z,10.34
2023-04-03T13:21:02.017Z,10.10
2023-04-03T13:26:04.543Z,9.93
2023-04-03T13:31:11.609Z,10.19
2023-04-03T13:36:18.405Z,10.47
2023-04-03T13:41:26.082Z,10.69
2023-04-03T13:46:29.402Z,10.39
2023-04-03T13:51:31.373Z,10.55
2023-04-03T13:56:34.168Z,10.19
2023-04-03T14:01:43.652Z,9.53
2023-04-03T14:06:45.712Z,9.92
2023-04-03T14:11:48.324Z,9.82
2023-04-03T14:16:54.113Z,9.64
2023-04-03T14:21:55.948Z,9.45
2023-04-03T14:26:57.809Z,9.27
2023-04-03T14:32:13.848Z,9.52
2023-04-03T14:37:17.766Z,9.41
2023-04-03T14:42:21.343Z,9.23
2023-04-03T14:47:31.345Z,9.12
2023-04-03T14:52:35.542Z,9.31
2023-04-03T14:57:37.371Z,9.40
2023-04-03T15:02:41.285Z,9.21
2023-04-03T15:07:44.014Z,9.12
2023-04-03T15:12:45.983Z,8.74
2023-04-03T15:17:51.404Z,8.58
2023-04-03T15:22:53.208Z,8.61
2023-04-03T15:27:55.046Z,8.86
2023-04-03T15:32:58.117Z,9.08
2023-04-03T15:37:59.815Z,8.75
2023-04-03T15:43:01.518Z,8.53
2023-04-03T15:48:05.464Z,8.65
2023-04-03T15:53:07.263Z,8.92
2023-04-03T15:58:09.039Z,8.83
2023-04-03T16:03:13.196Z,8.76
2023-04-03T16:08:14.979Z,8.58
2023-04-03T16:13:16.765Z,8.25
2023-04-03T16:18:19.903Z,8.04
2023-04-03T16:23:21.622Z,8.15
2023-04-03T16:28:23.395Z,8.19
2023-04-03T16:33:27.023Z,8.31
2023-04-03T16:38:28.755Z,8.11
2023-04-03T16:43:30.655Z,7.97
2023-04-03T16:48:33.716Z,7.87
2023-04-03T16:53:36.678Z,7.71
2023-04-03T16:58:38.441Z,7.58
2023-04-03T17:03:41.585Z,7.43
2023-04-03T17:08:43.460Z,7.29
2023-04-03T17:13:45.391Z,7.25
2023-04-03T17:18:48.421Z,7.13
2023-04-03T17:23:52.107Z,7.06
2023-04-03T17:28:53.868Z,6.98
2023-04-03T17:33:56.879Z,6.98
2023-04-03T17:38:58.726Z,6.86
2023-04-03T17:44:00.527Z,6.66
2023-04-03T17:49:04.542Z,6.48
2023-04-03T17:54:06.275Z,6.38
2023-04-03T17:59:08.135Z,6.21
2023-04-03T18:04:11.269Z,6.17
2023-04-03T18:09:15.255Z,6.16
2023-04-03T18:14:20.313Z,6.18
2023-04-03T18:19:24.069Z,6.20
2023-04-03T18:24:26.174Z,6.21
2023-04-03T18:29:28.655Z,6.29
2023-04-03T18:34:31.746Z,6.29
2023-04-03T18:39:33.518Z,6.11
2023-04-03T18:44:35.277Z,5.91
2023-04-03T18:49:39.180Z,5.83
2023-04-03T18:54:42.695Z,5.82
2023-04-03T18:59:44.435Z,5.86
2023-04-03T19:04:47.937Z,5.70
2023-04-03T19:09:49.685Z,5.53
2023-04-03T19:14:51.382Z,5.49
2023-04-03T19:19:54.392Z,5.54
2023-04-03T19:24:56.338Z,5.42
2023-04-03T19:29:58.350Z,5.32
2023-04-03T19:35:01.380Z,5.21
2023-04-03T19:40:03.694Z,5.20
2023-04-03T19:45:07.778Z,5.16
2023-04-03T19:50:11.255Z,5.09
2023-04-03T19:55:13.037Z,5.12
2023-04-03T20:00:15.492Z,5.19
2023-04-03T20:05:18.609Z,5.17
2023-04-03T20:10:20.355Z,5.09
2023-04-03T20:15:22.073Z,4.91
2023-04-03T20:20:25.037Z,4.65
2023-04-03T20:25:46.167Z,4.54
2023-04-03T20:30:51.240Z,4.44
2023-04-03T20:35:55.278Z,4.35
2023-04-03T20:40:56.957Z,4.34
2023-04-03T20:45:59.667Z,4.25
2023-04-03T20:51:09.509Z,4.07
2023-04-03T20:56:11.297Z,3.78
2023-04-03T21:01:14.883Z,3.64
2023-04-03T21:06:55.441Z,3.47
2023-04-03T21:12:34.440Z,3.48
2023-04-03T21:17:36.129Z,3.45
2023-04-03T21:22:43.167Z,3.28
2023-04-03T21:27:45.096Z,3.17
2023-04-03T21:32:46.813Z,3.04
2023-04-03T21:37:50.157Z,2.93
2023-04-03T21:42:53.772Z,2.95
2023-04-03T21:47:55.508Z,3.01
2023-04-03T21:52:59.189Z,2.95
2023-04-03T21:58:01.018Z,2.75
2023-04-03T22:03:09.869Z,2.76
2023-04-03T22:08:13.843Z,2.70
2023-04-03T22:13:15.797Z,2.67
2023-04-03T22:18:17.563Z,2.60
2023-04-03T22:23:20.911Z,2.52
2023-04-03T22:28:22.644Z,2.29
2023-04-03T22:33:25.520Z,2.11
2023-04-03T22:38:28.566Z,2.03
2023-04-03T22:43:31.464Z,2.01
2023-04-03T22:48:33.468Z,1.94
2023-04-03T22:53:36.741Z,1.85
2023-04-03T22:58:39.087Z,1.83
2023-04-03T23:03:41.816Z,1.68
2023-04-03T23:08:44.838Z,1.69
2023-04-03T23:13:46.717Z,1.73
2023-04-03T23:18:49.971Z,1.61
2023-04-03T23:23:53.036Z,1.43
2023-04-03T23:28:54.728Z,1.27
2023-04-03T23:33:56.396Z,1.17
2023-04-03T23:38:59.417Z,1.14
2023-04-03T23:44:01.144Z,1.06
2023-04-03T23:49:02.860Z,1.13
2023-04-03T23:54:06.307Z,0.97
2023-04-03T23:59:08.053Z,0.82
